Terminal Aerodrome Forecast
Issued by NWS Jackson, MS

Home | Current Version | Previous Version | Text Only | Print | Product List | Glossary On
Versions: 1 2 3 4 5 6 7 8 9 10 11 12
768
FTUS44 KJAN 220520
TAFGLH
TAF
KGLH 220520Z 2206/2306 20003KT P6SM SCT250
     FM220900 00000KT 2SM BR BKN012
     FM221400 20003KT P6SM BKN015
     FM221600 27004KT P6SM SCT030
     FM221900 33006KT P6SM BKN040
     FM230000 02003KT P6SM FEW100 SCT250=

USA.gov is the U.S. government's official web portal to all federal, state and local government web resources and services.